createdAt,value
2023-07-28T05:02:24.752Z,24.62
2023-07-28T05:05:11.442Z,24.88
2023-07-28T05:07:57.896Z,24.50
2023-07-28T05:10:44.506Z,24.40
2023-07-28T05:13:31.401Z,25.42
2023-07-28T08:26:07.913Z,26.78
2023-07-28T08:28:54.170Z,27.05
2023-07-28T08:31:40.472Z,27.02
2023-07-28T08:34:27.363Z,26.40
2023-07-28T08:37:14.377Z,25.63
2023-07-28T08:40:00.797Z,24.98
2023-07-28T08:42:48.842Z,26.44
2023-07-28T08:45:35.324Z,26.28
2023-07-28T08:48:21.808Z,27.84
2023-07-28T08:51:10.118Z,27.64
2023-07-28T08:53:59.735Z,27.40
2023-07-28T08:56:46.047Z,27.72
2023-07-28T08:59:36.250Z,27.82
2023-07-28T09:02:22.933Z,26.94
2023-07-28T09:05:18.459Z,27.39
2023-07-28T09:08:06.292Z,27.35
2023-07-28T09:10:52.804Z,27.72
2023-07-28T09:13:43.309Z,28.02
2023-07-28T09:16:33.431Z,27.99
2023-07-28T09:19:19.546Z,28.56
2023-07-28T09:22:07.973Z,27.87
2023-07-28T09:24:54.577Z,28.36
2023-07-28T09:27:41.137Z,27.79
2023-07-28T09:30:28.064Z,28.07
2023-07-28T09:33:16.301Z,29.51
2023-07-28T09:36:09.163Z,28.47
2023-07-28T09:38:56.563Z,29.77
2023-07-28T09:41:42.969Z,29.55
2023-07-28T09:44:29.272Z,29.05
2023-07-28T09:47:16.008Z,29.17
2023-07-28T09:50:04.569Z,29.82
2023-07-28T09:52:52.305Z,29.09
2023-07-28T09:55:41.100Z,29.76
2023-07-28T09:58:27.644Z,28.76
2023-07-28T10:01:14.596Z,29.57
2023-07-28T10:04:01.501Z,29.14
2023-07-28T10:06:50.039Z,28.96
2023-07-28T10:09:38.278Z,29.79
2023-07-28T10:12:26.058Z,29.44
2023-07-28T13:59:28.690Z,31.64
2023-07-28T14:02:14.984Z,31.37
2023-07-28T14:05:01.386Z,33.41
2023-07-28T14:07:47.956Z,32.40
2023-07-28T14:10:34.101Z,31.32
2023-07-28T14:13:20.710Z,32.43
2023-07-28T14:16:10.643Z,32.71
2023-07-28T14:18:56.566Z,31.68
2023-07-28T14:21:43.039Z,32.41
2023-07-28T14:24:29.614Z,29.94
2023-07-28T14:27:15.653Z,31.49
2023-07-28T14:30:01.859Z,31.08
2023-07-28T14:32:49.247Z,30.36
2023-07-28T14:35:35.397Z,30.49
2023-07-28T14:38:21.855Z,32.11
2023-07-28T14:41:08.503Z,30.92
2023-07-28T14:43:54.640Z,29.22
2023-07-28T14:46:41.352Z,30.08
2023-07-28T14:49:31.479Z,30.39
2023-07-28T14:52:18.409Z,29.75
2023-07-28T14:55:05.687Z,31.06
2023-07-28T14:57:52.475Z,30.52
2023-07-28T15:06:57.327Z,29.39
2023-07-28T15:09:43.843Z,29.71
2023-07-28T15:12:30.108Z,30.18
2023-07-28T15:15:16.500Z,30.10
2023-07-28T15:18:02.799Z,30.65
2023-07-28T15:20:49.610Z,30.09
2023-07-28T15:23:37.324Z,30.50
2023-07-28T15:26:24.335Z,30.88
2023-07-28T15:29:10.648Z,30.06
2023-07-28T15:31:57.466Z,28.89
2023-07-28T15:34:43.626Z,28.30
2023-07-28T15:37:30.677Z,29.50
2023-07-28T15:40:18.473Z,29.80
2023-07-28T15:43:04.829Z,28.96
2023-07-28T15:45:55.296Z,28.52
2023-07-28T15:48:43.455Z,28.79
2023-07-28T15:51:31.419Z,29.99
2023-07-28T15:54:17.563Z,27.85
2023-07-28T15:57:05.376Z,28.97
2023-07-28T15:59:55.805Z,28.91
2023-07-28T16:02:42.722Z,27.77
2023-07-28T16:05:32.179Z,26.72
2023-07-28T16:08:18.831Z,27.12
2023-07-28T16:11:05.387Z,26.33
2023-07-28T16:13:53.161Z,27.48
2023-07-28T16:16:39.333Z,26.55
2023-07-28T16:19:32.419Z,26.38
2023-07-28T16:22:19.753Z,25.80
2023-07-28T16:25:06.270Z,25.14
2023-07-28T16:27:52.465Z,26.69
2023-07-28T16:30:41.396Z,27.19
2023-07-28T16:33:28.001Z,26.16
2023-07-28T16:36:16.072Z,26.17
2023-07-28T16:39:03.097Z,27.10
2023-07-28T16:41:50.453Z,26.24
2023-07-28T16:44:37.027Z,26.83
2023-07-28T16:47:24.958Z,27.94
2023-07-28T16:50:11.672Z,27.52
2023-07-28T16:52:58.172Z,27.18
2023-07-28T16:55:44.455Z,27.81
2023-07-28T16:58:30.930Z,27.43
2023-07-28T17:01:20.404Z,28.01
2023-07-28T17:04:09.867Z,27.91
2023-07-28T17:06:55.956Z,27.13
2023-07-28T17:09:42.232Z,27.41
2023-07-28T17:12:28.642Z,27.44
2023-07-28T17:15:20.050Z,28.21
2023-07-28T17:18:13.934Z,28.51
2023-07-28T17:21:01.549Z,27.74
2023-07-28T17:23:47.918Z,27.38
2023-07-28T17:26:36.435Z,28.83
2023-07-28T17:29:23.539Z,28.12
2023-07-28T17:32:11.806Z,28.21
2023-07-28T17:35:06.530Z,28.36
2023-07-28T17:37:59.093Z,27.33
2023-07-28T17:40:45.733Z,28.97
2023-07-28T17:43:38.923Z,29.49
2023-07-28T17:46:27.160Z,29.15
2023-07-28T17:49:15.700Z,29.17
2023-07-28T17:52:01.733Z,28.84
2023-07-28T17:54:49.577Z,29.50
2023-07-28T17:57:36.252Z,28.52
2023-07-28T18:00:22.468Z,28.67
2023-07-28T18:03:09.000Z,28.91
2023-07-28T18:05:55.455Z,28.16
2023-07-28T18:08:41.712Z,28.87
2023-07-28T18:11:29.084Z,29.43
2023-07-28T18:14:15.921Z,28.66
2023-07-28T18:17:02.808Z,29.27
2023-07-28T18:19:49.519Z,28.72
2023-07-28T18:22:36.168Z,27.86
2023-07-28T18:25:22.726Z,29.03
2023-07-28T18:28:10.233Z,28.12
2023-07-28T18:30:56.926Z,28.56
2023-07-28T18:33:44.688Z,28.36
2023-07-28T18:36:31.210Z,28.69
2023-07-28T18:39:17.715Z,28.77
2023-07-28T18:42:03.985Z,28.71
2023-07-28T18:44:51.518Z,28.65
2023-07-28T18:47:39.841Z,28.96
2023-07-28T18:50:26.518Z,29.15
2023-07-28T18:53:12.983Z,28.89
2023-07-28T18:55:59.309Z,28.66
2023-07-28T18:58:45.612Z,28.52
2023-07-28T19:45:55.055Z,28.08
2023-07-28T19:48:42.434Z,28.23
2023-07-28T19:51:28.918Z,28.33
2023-07-28T19:54:15.239Z,28.17
2023-07-28T19:57:02.364Z,28.12
2023-07-28T19:59:50.612Z,27.91
2023-07-28T20:47:11.189Z,26.42
2023-07-28T20:49:58.020Z,26.56
2023-07-28T20:52:49.305Z,26.03
2023-07-28T20:55:37.374Z,26.07
2023-07-28T20:58:26.419Z,24.74
2023-07-28T21:01:14.620Z,25.47
2023-07-28T21:04:02.225Z,25.29
2023-07-28T21:06:48.384Z,24.99
2023-07-28T21:09:35.184Z,25.44
2023-07-28T21:12:22.095Z,24.76
2023-07-28T21:15:08.809Z,25.17
2023-07-28T21:18:02.084Z,25.86
2023-07-28T21:20:50.267Z,26.13
2023-07-28T21:23:36.801Z,25.86
2023-07-28T21:26:23.086Z,26.15
2023-07-28T21:29:10.078Z,25.75
2023-07-28T21:31:56.246Z,26.04
2023-07-28T21:34:42.371Z,24.91
2023-07-28T21:37:29.775Z,26.16
2023-07-28T21:40:16.307Z,25.77
2023-07-28T21:43:02.699Z,26.16
2023-07-28T21:45:49.786Z,25.83
2023-07-28T21:48:36.028Z,25.47
2023-07-28T21:51:22.274Z,26.37
2023-07-28T21:54:09.666Z,26.19
2023-07-28T21:56:56.004Z,25.94
2023-07-28T21:59:42.345Z,25.90
2023-07-28T22:02:28.546Z,25.92
2023-07-28T22:05:16.562Z,26.06
2023-07-28T22:08:10.727Z,25.73
2023-07-28T22:10:58.643Z,25.31
2023-07-28T22:13:45.768Z,25.36
